sensor_id;sensor_type;location;lat;lon;timestamp;P1;durP1;ratioP1;P2;durP2;ratioP2
64816;SDS011;53289;45.602;11.904;2022-07-29T00:00:54;17.23;;;12.13;;
64816;SDS011;53289;45.602;11.904;2022-07-29T00:03:20;16.13;;;10.82;;
64816;SDS011;53289;45.602;11.904;2022-07-29T00:05:46;10.70;;;8.00;;
64816;SDS011;53289;45.602;11.904;2022-07-29T00:08:12;10.20;;;7.10;;
64816;SDS011;53289;45.602;11.904;2022-07-29T00:10:38;7.82;;;5.05;;
64816;SDS011;53289;45.602;11.904;2022-07-29T00:13:04;7.70;;;4.40;;
64816;SDS011;53289;45.602;11.904;2022-07-29T00:15:30;7.55;;;3.80;;
64816;SDS011;53289;45.602;11.904;2022-07-29T00:17:55;7.22;;;3.53;;
64816;SDS011;53289;45.602;11.904;2022-07-29T00:20:21;8.10;;;3.55;;
64816;SDS011;53289;45.602;11.904;2022-07-29T00:22:47;7.38;;;3.35;;
64816;SDS011;53289;45.602;11.904;2022-07-29T00:25:13;6.60;;;3.15;;
64816;SDS011;53289;45.602;11.904;2022-07-29T00:27:39;4.32;;;2.70;;
64816;SDS011;53289;45.602;11.904;2022-07-29T00:30:05;4.68;;;2.50;;
64816;SDS011;53289;45.602;11.904;2022-07-29T00:32:33;3.80;;;2.20;;
64816;SDS011;53289;45.602;11.904;2022-07-29T00:34:59;3.83;;;2.13;;
64816;SDS011;53289;45.602;11.904;2022-07-29T00:37:43;5.22;;;2.47;;
64816;SDS011;53289;45.602;11.904;2022-07-29T00:40:09;2.70;;;1.83;;
64816;SDS011;53289;45.602;11.904;2022-07-29T00:42:44;4.70;;;2.30;;
64816;SDS011;53289;45.602;11.904;2022-07-29T00:45:11;6.28;;;2.78;;
64816;SDS011;53289;45.602;11.904;2022-07-29T00:47:39;4.72;;;2.53;;
64816;SDS011;53289;45.602;11.904;2022-07-29T00:50:05;3.15;;;2.45;;
64816;SDS011;53289;45.602;11.904;2022-07-29T00:52:34;2.47;;;2.15;;
64816;SDS011;53289;45.602;11.904;2022-07-29T00:55:06;3.03;;;2.28;;
64816;SDS011;53289;45.602;11.904;2022-07-29T00:57:34;5.68;;;2.75;;
64816;SDS011;53289;45.602;11.904;2022-07-29T01:00:02;3.58;;;2.50;;
64816;SDS011;53289;45.602;11.904;2022-07-29T01:02:30;4.03;;;2.38;;
64816;SDS011;53289;45.602;11.904;2022-07-29T01:04:56;4.28;;;2.50;;
64816;SDS011;53289;45.602;11.904;2022-07-29T01:07:23;3.67;;;2.35;;
64816;SDS011;53289;45.602;11.904;2022-07-29T01:09:51;5.30;;;2.25;;
64816;SDS011;53289;45.602;11.904;2022-07-29T01:12:19;3.25;;;2.42;;
64816;SDS011;53289;45.602;11.904;2022-07-29T01:14:49;5.68;;;2.60;;
64816;SDS011;53289;45.602;11.904;2022-07-29T01:30:35;3.40;;;2.50;;
64816;SDS011;53289;45.602;11.904;2022-07-29T01:33:06;3.42;;;2.80;;
64816;SDS011;53289;45.602;11.904;2022-07-29T01:35:37;4.93;;;3.40;;
64816;SDS011;53289;45.602;11.904;2022-07-29T01:38:09;3.85;;;3.10;;
64816;SDS011;53289;45.602;11.904;2022-07-29T01:40:46;3.35;;;3.05;;
64816;SDS011;53289;45.602;11.904;2022-07-29T01:43:20;6.35;;;3.58;;
64816;SDS011;53289;45.602;11.904;2022-07-29T01:45:57;4.80;;;3.00;;
64816;SDS011;53289;45.602;11.904;2022-07-29T01:54:30;4.70;;;3.05;;
64816;SDS011;53289;45.602;11.904;2022-07-29T01:56:49;4.13;;;2.90;;
64816;SDS011;53289;45.602;11.904;2022-07-29T01:59:18;4.35;;;3.00;;
64816;SDS011;53289;45.602;11.904;2022-07-29T02:01:45;4.07;;;3.20;;
64816;SDS011;53289;45.602;11.904;2022-07-29T02:04:13;6.18;;;3.72;;
64816;SDS011;53289;45.602;11.904;2022-07-29T02:06:42;4.47;;;3.60;;
64816;SDS011;53289;45.602;11.904;2022-07-29T02:09:10;5.20;;;3.88;;
64816;SDS011;53289;45.602;11.904;2022-07-29T02:11:39;5.35;;;3.70;;
64816;SDS011;53289;45.602;11.904;2022-07-29T02:14:09;5.40;;;3.60;;
64816;SDS011;53289;45.602;11.904;2022-07-29T02:16:38;6.90;;;3.95;;
64816;SDS011;53289;45.602;11.904;2022-07-29T02:19:06;6.22;;;3.70;;
64816;SDS011;53289;45.602;11.904;2022-07-29T02:21:33;5.28;;;3.30;;
64816;SDS011;53289;45.602;11.904;2022-07-29T02:24:01;5.05;;;3.20;;
64816;SDS011;53289;45.602;11.904;2022-07-29T02:26:27;4.05;;;3.00;;
64816;SDS011;53289;45.602;11.904;2022-07-29T02:28:56;5.10;;;3.15;;
64816;SDS011;53289;45.602;11.904;2022-07-29T02:31:25;6.03;;;3.20;;
64816;SDS011;53289;45.602;11.904;2022-07-29T02:33:55;4.65;;;2.78;;
64816;SDS011;53289;45.602;11.904;2022-07-29T02:36:22;4.90;;;2.65;;
64816;SDS011;53289;45.602;11.904;2022-07-29T02:38:50;3.85;;;2.70;;
64816;SDS011;53289;45.602;11.904;2022-07-29T02:41:23;3.00;;;2.50;;
64816;SDS011;53289;45.602;11.904;2022-07-29T02:44:02;3.78;;;2.78;;
64816;SDS011;53289;45.602;11.904;2022-07-29T02:46:32;4.53;;;3.22;;
64816;SDS011;53289;45.602;11.904;2022-07-29T02:49:09;3.35;;;2.97;;
64816;SDS011;53289;45.602;11.904;2022-07-29T02:55:01;3.42;;;2.60;;
64816;SDS011;53289;45.602;11.904;2022-07-29T02:57:36;3.92;;;2.50;;
64816;SDS011;53289;45.602;11.904;2022-07-29T03:00:08;3.58;;;2.83;;
64816;SDS011;53289;45.602;11.904;2022-07-29T03:02:37;3.85;;;2.90;;
64816;SDS011;53289;45.602;11.904;2022-07-29T03:05:06;4.28;;;2.78;;
64816;SDS011;53289;45.602;11.904;2022-07-29T03:07:36;3.63;;;3.05;;
64816;SDS011;53289;45.602;11.904;2022-07-29T03:10:05;3.92;;;2.67;;
64816;SDS011;53289;45.602;11.904;2022-07-29T03:12:34;3.50;;;2.90;;
64816;SDS011;53289;45.602;11.904;2022-07-29T03:15:01;4.65;;;2.55;;
64816;SDS011;53289;45.602;11.904;2022-07-29T03:17:28;4.05;;;3.00;;
64816;SDS011;53289;45.602;11.904;2022-07-29T03:19:56;4.57;;;2.70;;
64816;SDS011;53289;45.602;11.904;2022-07-29T03:22:24;6.57;;;3.10;;
64816;SDS011;53289;45.602;11.904;2022-07-29T03:24:51;5.88;;;3.30;;
64816;SDS011;53289;45.602;11.904;2022-07-29T03:27:17;5.55;;;3.60;;
64816;SDS011;53289;45.602;11.904;2022-07-29T03:29:43;3.75;;;2.75;;
64816;SDS011;53289;45.602;11.904;2022-07-29T03:32:09;4.78;;;2.90;;
64816;SDS011;53289;45.602;11.904;2022-07-29T03:34:36;3.10;;;2.80;;
64816;SDS011;53289;45.602;11.904;2022-07-29T03:37:03;3.90;;;2.70;;
64816;SDS011;53289;45.602;11.904;2022-07-29T03:39:31;3.53;;;2.90;;
64816;SDS011;53289;45.602;11.904;2022-07-29T03:42:01;3.58;;;3.05;;
64816;SDS011;53289;45.602;11.904;2022-07-29T03:44:31;3.38;;;2.90;;
64816;SDS011;53289;45.602;11.904;2022-07-29T03:46:58;4.57;;;3.67;;
64816;SDS011;53289;45.602;11.904;2022-07-29T03:49:27;4.85;;;3.00;;
64816;SDS011;53289;45.602;11.904;2022-07-29T03:51:54;4.97;;;3.50;;
64816;SDS011;53289;45.602;11.904;2022-07-29T03:54:21;3.72;;;2.88;;
64816;SDS011;53289;45.602;11.904;2022-07-29T03:56:48;3.28;;;2.65;;
64816;SDS011;53289;45.602;11.904;2022-07-29T03:59:15;4.22;;;2.75;;
64816;SDS011;53289;45.602;11.904;2022-07-29T04:01:44;4.45;;;2.90;;
64816;SDS011;53289;45.602;11.904;2022-07-29T04:04:12;3.80;;;2.75;;
64816;SDS011;53289;45.602;11.904;2022-07-29T04:06:41;4.40;;;3.67;;
64816;SDS011;53289;45.602;11.904;2022-07-29T04:09:09;3.50;;;3.10;;
64816;SDS011;53289;45.602;11.904;2022-07-29T04:11:36;5.85;;;3.80;;
64816;SDS011;53289;45.602;11.904;2022-07-29T04:14:04;5.95;;;4.05;;
64816;SDS011;53289;45.602;11.904;2022-07-29T04:16:30;7.03;;;4.40;;
64816;SDS011;53289;45.602;11.904;2022-07-29T04:18:57;6.28;;;4.15;;
64816;SDS011;53289;45.602;11.904;2022-07-29T04:21:23;7.20;;;4.28;;
64816;SDS011;53289;45.602;11.904;2022-07-29T04:23:49;6.78;;;4.68;;
64816;SDS011;53289;45.602;11.904;2022-07-29T04:26:16;6.40;;;4.25;;
64816;SDS011;53289;45.602;11.904;2022-07-29T04:28:43;8.27;;;4.22;;
64816;SDS011;53289;45.602;11.904;2022-07-29T04:31:09;6.50;;;4.30;;
64816;SDS011;53289;45.602;11.904;2022-07-29T04:33:36;6.10;;;4.38;;
64816;SDS011;53289;45.602;11.904;2022-07-29T04:36:02;9.93;;;4.93;;
64816;SDS011;53289;45.602;11.904;2022-07-29T04:38:28;7.32;;;4.68;;
64816;SDS011;53289;45.602;11.904;2022-07-29T04:40:55;5.20;;;3.75;;
64816;SDS011;53289;45.602;11.904;2022-07-29T04:43:21;7.72;;;4.72;;
64816;SDS011;53289;45.602;11.904;2022-07-29T04:45:47;5.10;;;3.97;;
64816;SDS011;53289;45.602;11.904;2022-07-29T04:48:13;6.43;;;4.03;;
64816;SDS011;53289;45.602;11.904;2022-07-29T04:50:39;7.75;;;4.40;;
64816;SDS011;53289;45.602;11.904;2022-07-29T04:53:05;5.82;;;3.83;;
64816;SDS011;53289;45.602;11.904;2022-07-29T04:55:32;5.32;;;3.65;;
64816;SDS011;53289;45.602;11.904;2022-07-29T04:57:59;5.32;;;4.00;;
64816;SDS011;53289;45.602;11.904;2022-07-29T05:00:25;8.00;;;5.18;;
64816;SDS011;53289;45.602;11.904;2022-07-29T05:02:51;9.35;;;4.47;;
64816;SDS011;53289;45.602;11.904;2022-07-29T05:05:17;9.88;;;5.20;;
64816;SDS011;53289;45.602;11.904;2022-07-29T05:07:43;7.60;;;5.28;;
64816;SDS011;53289;45.602;11.904;2022-07-29T05:10:09;8.15;;;4.82;;
64816;SDS011;53289;45.602;11.904;2022-07-29T05:12:35;7.32;;;5.47;;
64816;SDS011;53289;45.602;11.904;2022-07-29T05:15:01;9.10;;;5.25;;
64816;SDS011;53289;45.602;11.904;2022-07-29T05:17:27;9.18;;;5.60;;
64816;SDS011;53289;45.602;11.904;2022-07-29T05:19:53;10.90;;;5.78;;
64816;SDS011;53289;45.602;11.904;2022-07-29T05:22:19;7.68;;;5.40;;
64816;SDS011;53289;45.602;11.904;2022-07-29T05:24:45;7.32;;;5.80;;
64816;SDS011;53289;45.602;11.904;2022-07-29T05:27:12;9.98;;;5.60;;
64816;SDS011;53289;45.602;11.904;2022-07-29T05:29:38;8.07;;;5.63;;
64816;SDS011;53289;45.602;11.904;2022-07-29T05:32:05;7.07;;;5.25;;
64816;SDS011;53289;45.602;11.904;2022-07-29T05:34:31;12.23;;;6.30;;
64816;SDS011;53289;45.602;11.904;2022-07-29T05:36:57;9.75;;;6.50;;
64816;SDS011;53289;45.602;11.904;2022-07-29T05:39:23;8.10;;;6.10;;
64816;SDS011;53289;45.602;11.904;2022-07-29T05:41:49;8.07;;;6.22;;
64816;SDS011;53289;45.602;11.904;2022-07-29T05:44:15;10.00;;;6.53;;
64816;SDS011;53289;45.602;11.904;2022-07-29T05:46:41;9.80;;;6.80;;
64816;SDS011;53289;45.602;11.904;2022-07-29T05:49:07;8.27;;;5.97;;
64816;SDS011;53289;45.602;11.904;2022-07-29T05:51:34;8.57;;;6.18;;
64816;SDS011;53289;45.602;11.904;2022-07-29T05:53:59;12.48;;;6.68;;
64816;SDS011;53289;45.602;11.904;2022-07-29T05:56:25;10.32;;;6.85;;
64816;SDS011;53289;45.602;11.904;2022-07-29T05:58:51;8.95;;;6.32;;
64816;SDS011;53289;45.602;11.904;2022-07-29T06:01:17;8.10;;;5.75;;
64816;SDS011;53289;45.602;11.904;2022-07-29T06:03:44;8.75;;;5.90;;
64816;SDS011;53289;45.602;11.904;2022-07-29T06:06:10;8.25;;;6.03;;
64816;SDS011;53289;45.602;11.904;2022-07-29T06:08:36;8.35;;;5.88;;
64816;SDS011;53289;45.602;11.904;2022-07-29T06:11:02;8.70;;;5.60;;
64816;SDS011;53289;45.602;11.904;2022-07-29T06:13:29;7.80;;;6.00;;
64816;SDS011;53289;45.602;11.904;2022-07-29T06:15:56;7.68;;;5.35;;
64816;SDS011;53289;45.602;11.904;2022-07-29T06:18:22;8.25;;;5.78;;
64816;SDS011;53289;45.602;11.904;2022-07-29T06:20:49;8.20;;;5.88;;
64816;SDS011;53289;45.602;11.904;2022-07-29T06:23:16;7.00;;;5.07;;
64816;SDS011;53289;45.602;11.904;2022-07-29T06:25:43;6.55;;;5.20;;
64816;SDS011;53289;45.602;11.904;2022-07-29T06:28:09;13.00;;;5.50;;
64816;SDS011;53289;45.602;11.904;2022-07-29T06:30:35;7.60;;;5.18;;
64816;SDS011;53289;45.602;11.904;2022-07-29T06:33:01;6.72;;;4.75;;
64816;SDS011;53289;45.602;11.904;2022-07-29T06:35:28;8.38;;;5.20;;
64816;SDS011;53289;45.602;11.904;2022-07-29T06:37:53;6.20;;;4.18;;
64816;SDS011;53289;45.602;11.904;2022-07-29T06:40:19;8.00;;;5.15;;
64816;SDS011;53289;45.602;11.904;2022-07-29T06:43:04;5.60;;;4.90;;
64816;SDS011;53289;45.602;11.904;2022-07-29T06:45:30;6.28;;;4.70;;
64816;SDS011;53289;45.602;11.904;2022-07-29T06:47:59;8.48;;;5.25;;
64816;SDS011;53289;45.602;11.904;2022-07-29T06:50:25;8.00;;;4.82;;
64816;SDS011;53289;45.602;11.904;2022-07-29T06:52:51;6.55;;;4.72;;
64816;SDS011;53289;45.602;11.904;2022-07-29T06:55:17;5.78;;;4.43;;
64816;SDS011;53289;45.602;11.904;2022-07-29T06:57:45;6.82;;;5.05;;
64816;SDS011;53289;45.602;11.904;2022-07-29T07:00:12;6.72;;;4.63;;
64816;SDS011;53289;45.602;11.904;2022-07-29T07:02:38;5.90;;;4.82;;
64816;SDS011;53289;45.602;11.904;2022-07-29T07:05:04;7.57;;;5.00;;
64816;SDS011;53289;45.602;11.904;2022-07-29T07:07:31;8.88;;;7.28;;
64816;SDS011;53289;45.602;11.904;2022-07-29T07:09:57;5.32;;;4.55;;
64816;SDS011;53289;45.602;11.904;2022-07-29T07:12:23;10.45;;;5.32;;
64816;SDS011;53289;45.602;11.904;2022-07-29T07:14:48;5.95;;;4.57;;
64816;SDS011;53289;45.602;11.904;2022-07-29T07:17:14;5.95;;;4.57;;
64816;SDS011;53289;45.602;11.904;2022-07-29T07:19:40;5.03;;;4.28;;
64816;SDS011;53289;45.602;11.904;2022-07-29T07:22:06;5.57;;;4.60;;
64816;SDS011;53289;45.602;11.904;2022-07-29T07:24:32;8.10;;;4.15;;
64816;SDS011;53289;45.602;11.904;2022-07-29T07:26:58;6.40;;;4.28;;
64816;SDS011;53289;45.602;11.904;2022-07-29T07:29:24;8.43;;;4.75;;
64816;SDS011;53289;45.602;11.904;2022-07-29T07:31:50;6.28;;;4.70;;
64816;SDS011;53289;45.602;11.904;2022-07-29T07:34:16;7.95;;;4.47;;
64816;SDS011;53289;45.602;11.904;2022-07-29T07:36:42;5.93;;;4.30;;
64816;SDS011;53289;45.602;11.904;2022-07-29T07:39:07;6.78;;;4.70;;
64816;SDS011;53289;45.602;11.904;2022-07-29T07:41:33;5.97;;;4.40;;
64816;SDS011;53289;45.602;11.904;2022-07-29T07:43:59;7.70;;;4.43;;
64816;SDS011;53289;45.602;11.904;2022-07-29T07:46:25;8.48;;;4.45;;
64816;SDS011;53289;45.602;11.904;2022-07-29T07:48:51;6.00;;;4.50;;
64816;SDS011;53289;45.602;11.904;2022-07-29T07:51:17;7.43;;;4.30;;
64816;SDS011;53289;45.602;11.904;2022-07-29T07:53:43;5.97;;;4.30;;
64816;SDS011;53289;45.602;11.904;2022-07-29T07:56:10;5.47;;;4.20;;
64816;SDS011;53289;45.602;11.904;2022-07-29T07:58:35;6.03;;;4.53;;
64816;SDS011;53289;45.602;11.904;2022-07-29T08:01:02;6.75;;;4.25;;
64816;SDS011;53289;45.602;11.904;2022-07-29T08:03:28;5.60;;;4.07;;
64816;SDS011;53289;45.602;11.904;2022-07-29T08:05:54;5.78;;;4.40;;
64816;SDS011;53289;45.602;11.904;2022-07-29T08:08:20;7.38;;;4.60;;
64816;SDS011;53289;45.602;11.904;2022-07-29T08:10:46;6.88;;;4.60;;
64816;SDS011;53289;45.602;11.904;2022-07-29T08:13:21;6.68;;;4.03;;
64816;SDS011;53289;45.602;11.904;2022-07-29T08:15:49;5.93;;;4.00;;
64816;SDS011;53289;45.602;11.904;2022-07-29T08:18:36;7.22;;;4.70;;
64816;SDS011;53289;45.602;11.904;2022-07-29T08:21:03;7.40;;;4.35;;
64816;SDS011;53289;45.602;11.904;2022-07-29T08:23:29;6.05;;;4.50;;
64816;SDS011;53289;45.602;11.904;2022-07-29T08:26:05;6.88;;;4.50;;
64816;SDS011;53289;45.602;11.904;2022-07-29T08:28:36;6.93;;;4.25;;
64816;SDS011;53289;45.602;11.904;2022-07-29T08:31:03;7.38;;;4.50;;
64816;SDS011;53289;45.602;11.904;2022-07-29T08:33:29;6.13;;;4.35;;
64816;SDS011;53289;45.602;11.904;2022-07-29T08:35:56;5.40;;;4.05;;
64816;SDS011;53289;45.602;11.904;2022-07-29T08:38:22;6.32;;;4.35;;
64816;SDS011;53289;45.602;11.904;2022-07-29T08:40:47;5.28;;;4.78;;
64816;SDS011;53289;45.602;11.904;2022-07-29T08:43:14;5.30;;;4.10;;
64816;SDS011;53289;45.602;11.904;2022-07-29T08:45:46;6.07;;;4.35;;
64816;SDS011;53289;45.602;11.904;2022-07-29T08:48:18;4.50;;;3.90;;
64816;SDS011;53289;45.602;11.904;2022-07-29T08:50:47;6.07;;;4.20;;
64816;SDS011;53289;45.602;11.904;2022-07-29T08:53:18;5.15;;;3.90;;
64816;SDS011;53289;45.602;11.904;2022-07-29T08:55:45;6.95;;;4.70;;
64816;SDS011;53289;45.602;11.904;2022-07-29T08:58:12;6.53;;;4.40;;
64816;SDS011;53289;45.602;11.904;2022-07-29T09:00:46;5.93;;;4.43;;
64816;SDS011;53289;45.602;11.904;2022-07-29T09:03:19;5.70;;;4.00;;
64816;SDS011;53289;45.602;11.904;2022-07-29T09:05:48;5.88;;;4.50;;
64816;SDS011;53289;45.602;11.904;2022-07-29T09:08:15;5.55;;;4.10;;
64816;SDS011;53289;45.602;11.904;2022-07-29T09:10:42;8.07;;;4.65;;
64816;SDS011;53289;45.602;11.904;2022-07-29T09:13:09;5.53;;;4.20;;
64816;SDS011;53289;45.602;11.904;2022-07-29T09:15:35;7.07;;;4.40;;
64816;SDS011;53289;45.602;11.904;2022-07-29T09:18:01;6.38;;;4.30;;
64816;SDS011;53289;45.602;11.904;2022-07-29T09:20:27;6.07;;;4.45;;
64816;SDS011;53289;45.602;11.904;2022-07-29T09:23:13;5.38;;;4.05;;
64816;SDS011;53289;45.602;11.904;2022-07-29T09:25:40;6.38;;;4.28;;
64816;SDS011;53289;45.602;11.904;2022-07-29T09:28:07;4.82;;;4.05;;
64816;SDS011;53289;45.602;11.904;2022-07-29T09:30:53;5.03;;;4.50;;
64816;SDS011;53289;45.602;11.904;2022-07-29T09:33:22;5.07;;;4.07;;
64816;SDS011;53289;45.602;11.904;2022-07-29T09:35:58;5.72;;;4.07;;
64816;SDS011;53289;45.602;11.904;2022-07-29T09:38:28;5.45;;;4.20;;
64816;SDS011;53289;45.602;11.904;2022-07-29T09:40:58;5.43;;;4.32;;
64816;SDS011;53289;45.602;11.904;2022-07-29T09:43:25;5.22;;;4.15;;
64816;SDS011;53289;45.602;11.904;2022-07-29T09:45:51;5.97;;;4.22;;
64816;SDS011;53289;45.602;11.904;2022-07-29T09:48:18;5.63;;;3.70;;
64816;SDS011;53289;45.602;11.904;2022-07-29T09:50:44;5.50;;;4.10;;
64816;SDS011;53289;45.602;11.904;2022-07-29T09:55:59;5.15;;;3.88;;
64816;SDS011;53289;45.602;11.904;2022-07-29T09:58:24;5.00;;;4.22;;
64816;SDS011;53289;45.602;11.904;2022-07-29T10:00:51;6.35;;;4.15;;
64816;SDS011;53289;45.602;11.904;2022-07-29T10:03:19;6.07;;;3.80;;
64816;SDS011;53289;45.602;11.904;2022-07-29T10:05:47;6.88;;;4.05;;
64816;SDS011;53289;45.602;11.904;2022-07-29T10:08:36;7.07;;;4.68;;
64816;SDS011;53289;45.602;11.904;2022-07-29T10:11:09;7.47;;;4.13;;
64816;SDS011;53289;45.602;11.904;2022-07-29T10:13:36;6.65;;;4.30;;
64816;SDS011;53289;45.602;11.904;2022-07-29T10:16:01;4.85;;;4.10;;
64816;SDS011;53289;45.602;11.904;2022-07-29T10:18:28;6.03;;;4.55;;
64816;SDS011;53289;45.602;11.904;2022-07-29T10:20:55;5.95;;;4.60;;
64816;SDS011;53289;45.602;11.904;2022-07-29T10:23:22;7.70;;;4.50;;
64816;SDS011;53289;45.602;11.904;2022-07-29T10:25:49;4.60;;;4.10;;
64816;SDS011;53289;45.602;11.904;2022-07-29T10:28:15;5.20;;;4.30;;
64816;SDS011;53289;45.602;11.904;2022-07-29T10:30:41;5.70;;;4.10;;
64816;SDS011;53289;45.602;11.904;2022-07-29T10:42:18;5.53;;;3.92;;
64816;SDS011;53289;45.602;11.904;2022-07-29T10:44:50;5.18;;;4.18;;
64816;SDS011;53289;45.602;11.904;2022-07-29T10:47:20;5.55;;;3.97;;
64816;SDS011;53289;45.602;11.904;2022-07-29T10:50:01;4.85;;;4.00;;
64816;SDS011;53289;45.602;11.904;2022-07-29T10:55:32;4.25;;;3.85;;
64816;SDS011;53289;45.602;11.904;2022-07-29T10:58:15;4.32;;;3.78;;
64816;SDS011;53289;45.602;11.904;2022-07-29T11:00:43;6.65;;;4.40;;
64816;SDS011;53289;45.602;11.904;2022-07-29T11:03:24;3.70;;;3.40;;
64816;SDS011;53289;45.602;11.904;2022-07-29T11:06:09;5.18;;;4.40;;
64816;SDS011;53289;45.602;11.904;2022-07-29T11:08:35;5.35;;;4.18;;
64816;SDS011;53289;45.602;11.904;2022-07-29T11:13:49;6.15;;;4.28;;
64816;SDS011;53289;45.602;11.904;2022-07-29T11:16:18;4.10;;;3.70;;
64816;SDS011;53289;45.602;11.904;2022-07-29T11:21:38;4.95;;;3.80;;
64816;SDS011;53289;45.602;11.904;2022-07-29T11:24:16;6.43;;;3.58;;
64816;SDS011;53289;45.602;11.904;2022-07-29T11:26:44;3.90;;;3.35;;
64816;SDS011;53289;45.602;11.904;2022-07-29T11:29:20;4.03;;;3.63;;
64816;SDS011;53289;45.602;11.904;2022-07-29T11:31:50;3.88;;;3.47;;
64816;SDS011;53289;45.602;11.904;2022-07-29T11:37:37;4.22;;;3.80;;
64816;SDS011;53289;45.602;11.904;2022-07-29T11:39:43;3.88;;;3.42;;
64816;SDS011;53289;45.602;11.904;2022-07-29T11:47:32;6.75;;;3.80;;
64816;SDS011;53289;45.602;11.904;2022-07-29T11:50:01;6.53;;;3.53;;
64816;SDS011;53289;45.602;11.904;2022-07-29T11:55:04;4.03;;;3.53;;
64816;SDS011;53289;45.602;11.904;2022-07-29T11:57:34;4.10;;;3.50;;
64816;SDS011;53289;45.602;11.904;2022-07-29T12:00:01;5.00;;;3.63;;
64816;SDS011;53289;45.602;11.904;2022-07-29T12:02:38;5.18;;;3.75;;
64816;SDS011;53289;45.602;11.904;2022-07-29T12:05:07;4.70;;;3.42;;
64816;SDS011;53289;45.602;11.904;2022-07-29T12:07:34;5.70;;;3.35;;
64816;SDS011;53289;45.602;11.904;2022-07-29T12:10:00;5.20;;;3.65;;
64816;SDS011;53289;45.602;11.904;2022-07-29T12:12:27;6.85;;;3.45;;
64816;SDS011;53289;45.602;11.904;2022-07-29T12:14:53;5.38;;;3.80;;
64816;SDS011;53289;45.602;11.904;2022-07-29T12:17:29;4.63;;;3.47;;
64816;SDS011;53289;45.602;11.904;2022-07-29T12:19:57;4.80;;;3.50;;
64816;SDS011;53289;45.602;11.904;2022-07-29T12:22:29;4.57;;;3.22;;
64816;SDS011;53289;45.602;11.904;2022-07-29T12:25:33;4.82;;;3.35;;
64816;SDS011;53289;45.602;11.904;2022-07-29T12:27:59;3.97;;;3.58;;
64816;SDS011;53289;45.602;11.904;2022-07-29T12:30:43;5.82;;;3.80;;
64816;SDS011;53289;45.602;11.904;2022-07-29T12:33:17;5.10;;;3.28;;
64816;SDS011;53289;45.602;11.904;2022-07-29T12:35:49;4.68;;;3.33;;
64816;SDS011;53289;45.602;11.904;2022-07-29T12:38:17;4.40;;;3.50;;
64816;SDS011;53289;45.602;11.904;2022-07-29T12:40:44;4.78;;;3.40;;
64816;SDS011;53289;45.602;11.904;2022-07-29T12:43:13;7.50;;;3.88;;
64816;SDS011;53289;45.602;11.904;2022-07-29T12:45:43;4.68;;;3.33;;
64816;SDS011;53289;45.602;11.904;2022-07-29T12:48:12;4.78;;;3.45;;
64816;SDS011;53289;45.602;11.904;2022-07-29T12:50:58;4.50;;;2.92;;
64816;SDS011;53289;45.602;11.904;2022-07-29T12:53:26;3.80;;;3.10;;
64816;SDS011;53289;45.602;11.904;2022-07-29T12:55:54;4.15;;;3.10;;
64816;SDS011;53289;45.602;11.904;2022-07-29T12:58:31;5.70;;;3.40;;
64816;SDS011;53289;45.602;11.904;2022-07-29T13:09:10;3.95;;;3.60;;
64816;SDS011;53289;45.602;11.904;2022-07-29T13:11:43;5.78;;;3.13;;
64816;SDS011;53289;45.602;11.904;2022-07-29T13:14:12;4.20;;;3.60;;
64816;SDS011;53289;45.602;11.904;2022-07-29T13:19:33;4.78;;;3.55;;
64816;SDS011;53289;45.602;11.904;2022-07-29T13:22:03;5.63;;;3.85;;
64816;SDS011;53289;45.602;11.904;2022-07-29T13:24:29;4.57;;;3.30;;
64816;SDS011;53289;45.602;11.904;2022-07-29T13:26:55;4.13;;;3.53;;
64816;SDS011;53289;45.602;11.904;2022-07-29T13:29:21;3.97;;;3.58;;
64816;SDS011;53289;45.602;11.904;2022-07-29T13:31:47;6.53;;;3.42;;
64816;SDS011;53289;45.602;11.904;2022-07-29T13:34:13;4.95;;;3.50;;
64816;SDS011;53289;45.602;11.904;2022-07-29T13:36:39;6.05;;;3.50;;
64816;SDS011;53289;45.602;11.904;2022-07-29T13:39:05;3.60;;;3.30;;
64816;SDS011;53289;45.602;11.904;2022-07-29T13:41:31;5.28;;;3.45;;
64816;SDS011;53289;45.602;11.904;2022-07-29T13:43:57;3.70;;;3.40;;
64816;SDS011;53289;45.602;11.904;2022-07-29T13:46:23;5.88;;;3.50;;
64816;SDS011;53289;45.602;11.904;2022-07-29T13:48:48;4.15;;;3.30;;
64816;SDS011;53289;45.602;11.904;2022-07-29T13:51:16;5.50;;;3.38;;
64816;SDS011;53289;45.602;11.904;2022-07-29T13:53:42;8.73;;;3.88;;
64816;SDS011;53289;45.602;11.904;2022-07-29T13:56:07;6.63;;;3.92;;
64816;SDS011;53289;45.602;11.904;2022-07-29T13:58:33;5.13;;;3.65;;
64816;SDS011;53289;45.602;11.904;2022-07-29T14:00:59;4.53;;;3.40;;
64816;SDS011;53289;45.602;11.904;2022-07-29T14:03:26;4.97;;;3.50;;
64816;SDS011;53289;45.602;11.904;2022-07-29T14:05:52;5.55;;;3.50;;
64816;SDS011;53289;45.602;11.904;2022-07-29T14:08:18;4.70;;;3.70;;
64816;SDS011;53289;45.602;11.904;2022-07-29T14:10:44;4.53;;;3.40;;
64816;SDS011;53289;45.602;11.904;2022-07-29T14:13:10;5.85;;;3.63;;
64816;SDS011;53289;45.602;11.904;2022-07-29T14:15:36;4.00;;;3.60;;
64816;SDS011;53289;45.602;11.904;2022-07-29T14:18:02;6.05;;;3.67;;
64816;SDS011;53289;45.602;11.904;2022-07-29T14:20:28;6.18;;;4.40;;
64816;SDS011;53289;45.602;11.904;2022-07-29T14:22:55;4.65;;;3.80;;
64816;SDS011;53289;45.602;11.904;2022-07-29T14:25:22;11.85;;;4.20;;
64816;SDS011;53289;45.602;11.904;2022-07-29T14:27:48;5.05;;;3.55;;
64816;SDS011;53289;45.602;11.904;2022-07-29T14:30:15;4.97;;;3.47;;
64816;SDS011;53289;45.602;11.904;2022-07-29T14:32:40;3.72;;;3.30;;
64816;SDS011;53289;45.602;11.904;2022-07-29T14:35:06;6.10;;;3.55;;
64816;SDS011;53289;45.602;11.904;2022-07-29T14:37:33;4.30;;;3.42;;
64816;SDS011;53289;45.602;11.904;2022-07-29T14:40:01;3.80;;;3.20;;
64816;SDS011;53289;45.602;11.904;2022-07-29T14:42:29;4.15;;;3.30;;
64816;SDS011;53289;45.602;11.904;2022-07-29T14:44:57;7.07;;;3.65;;
64816;SDS011;53289;45.602;11.904;2022-07-29T14:47:23;3.83;;;3.50;;
64816;SDS011;53289;45.602;11.904;2022-07-29T14:49:49;5.82;;;3.92;;
64816;SDS011;53289;45.602;11.904;2022-07-29T14:52:15;5.18;;;3.40;;
64816;SDS011;53289;45.602;11.904;2022-07-29T14:54:41;4.70;;;3.28;;
64816;SDS011;53289;45.602;11.904;2022-07-29T14:57:07;5.80;;;3.17;;
64816;SDS011;53289;45.602;11.904;2022-07-29T14:59:34;3.97;;;3.58;;
64816;SDS011;53289;45.602;11.904;2022-07-29T15:01:59;4.22;;;3.70;;
64816;SDS011;53289;45.602;11.904;2022-07-29T15:04:25;3.40;;;3.10;;
64816;SDS011;53289;45.602;11.904;2022-07-29T15:06:51;4.32;;;3.47;;
64816;SDS011;53289;45.602;11.904;2022-07-29T15:09:17;5.38;;;3.80;;
64816;SDS011;53289;45.602;11.904;2022-07-29T15:11:43;4.60;;;4.10;;
64816;SDS011;53289;45.602;11.904;2022-07-29T15:14:09;6.85;;;4.10;;
64816;SDS011;53289;45.602;11.904;2022-07-29T15:16:36;4.88;;;4.00;;
64816;SDS011;53289;45.602;11.904;2022-07-29T15:19:03;6.93;;;4.20;;
64816;SDS011;53289;45.602;11.904;2022-07-29T15:21:29;5.47;;;4.10;;
64816;SDS011;53289;45.602;11.904;2022-07-29T15:23:55;6.57;;;4.03;;
64816;SDS011;53289;45.602;11.904;2022-07-29T15:26:22;5.07;;;3.80;;
64816;SDS011;53289;45.602;11.904;2022-07-29T15:28:47;7.47;;;3.90;;
64816;SDS011;53289;45.602;11.904;2022-07-29T15:31:13;7.18;;;4.20;;
64816;SDS011;53289;45.602;11.904;2022-07-29T15:33:40;5.07;;;4.07;;
64816;SDS011;53289;45.602;11.904;2022-07-29T15:36:06;4.85;;;4.20;;
64816;SDS011;53289;45.602;11.904;2022-07-29T15:38:32;5.90;;;3.92;;
64816;SDS011;53289;45.602;11.904;2022-07-29T15:40:58;6.30;;;3.95;;
64816;SDS011;53289;45.602;11.904;2022-07-29T15:43:24;5.95;;;4.18;;